sensor_id;sensor_type;location;lat;lon;timestamp;temperature;humidity
35497;DHT22;21609;49.298;6.844;2022-09-11T00:00:33;21.40;57.20
35497;DHT22;21609;49.298;6.844;2022-09-11T00:02:58;21.40;57.30
35497;DHT22;21609;49.298;6.844;2022-09-11T00:05:24;21.40;57.30
35497;DHT22;21609;49.298;6.844;2022-09-11T00:07:50;21.40;57.20
35497;DHT22;21609;49.298;6.844;2022-09-11T00:10:16;21.40;57.20
35497;DHT22;21609;49.298;6.844;2022-09-11T00:12:42;21.30;57.20
35497;DHT22;21609;49.298;6.844;2022-09-11T00:15:09;21.40;57.30
35497;DHT22;21609;49.298;6.844;2022-09-11T00:17:35;21.30;57.20
35497;DHT22;21609;49.298;6.844;2022-09-11T00:20:03;21.40;57.20
35497;DHT22;21609;49.298;6.844;2022-09-11T00:22:29;21.40;57.30
35497;DHT22;21609;49.298;6.844;2022-09-11T00:24:54;21.30;57.20
35497;DHT22;21609;49.298;6.844;2022-09-11T00:27:20;21.30;57.20
35497;DHT22;21609;49.298;6.844;2022-09-11T00:29:45;21.30;57.10
35497;DHT22;21609;49.298;6.844;2022-09-11T00:32:11;21.30;57.20
35497;DHT22;21609;49.298;6.844;2022-09-11T00:34:37;21.30;57.20
35497;DHT22;21609;49.298;6.844;2022-09-11T00:37:03;21.30;57.20
35497;DHT22;21609;49.298;6.844;2022-09-11T00:39:29;21.30;57.20
35497;DHT22;21609;49.298;6.844;2022-09-11T00:41:55;21.30;57.20
35497;DHT22;21609;49.298;6.844;2022-09-11T00:46:51;21.30;57.20
35497;DHT22;21609;49.298;6.844;2022-09-11T00:51:52;21.30;57.20
35497;DHT22;21609;49.298;6.844;2022-09-11T00:56:53;21.30;57.20
35497;DHT22;21609;49.298;6.844;2022-09-11T00:59:22;21.30;57.20
35497;DHT22;21609;49.298;6.844;2022-09-11T01:01:52;21.30;57.20
35497;DHT22;21609;49.298;6.844;2022-09-11T01:04:20;21.30;57.20
35497;DHT22;21609;49.298;6.844;2022-09-11T01:06:45;21.30;57.20
35497;DHT22;21609;49.298;6.844;2022-09-11T01:09:12;21.30;57.10
35497;DHT22;21609;49.298;6.844;2022-09-11T01:14:58;21.30;57.20
35497;DHT22;21609;49.298;6.844;2022-09-11T01:26:41;21.30;57.20
35497;DHT22;21609;49.298;6.844;2022-09-11T01:29:38;21.30;57.20
35497;DHT22;21609;49.298;6.844;2022-09-11T01:34:48;21.30;57.20
35497;DHT22;21609;49.298;6.844;2022-09-11T01:37:22;21.30;57.10
35497;DHT22;21609;49.298;6.844;2022-09-11T01:39:54;21.30;57.10
35497;DHT22;21609;49.298;6.844;2022-09-11T01:42:23;21.30;57.10
35497;DHT22;21609;49.298;6.844;2022-09-11T01:44:55;21.20;57.10
35497;DHT22;21609;49.298;6.844;2022-09-11T01:47:21;21.20;57.10
35497;DHT22;21609;49.298;6.844;2022-09-11T01:49:59;21.20;57.10
35497;DHT22;21609;49.298;6.844;2022-09-11T01:52:31;21.20;57.10
35497;DHT22;21609;49.298;6.844;2022-09-11T01:55:08;21.20;57.10
35497;DHT22;21609;49.298;6.844;2022-09-11T01:57:41;21.20;57.10
35497;DHT22;21609;49.298;6.844;2022-09-11T02:00:10;21.20;57.10
35497;DHT22;21609;49.298;6.844;2022-09-11T02:02:41;21.20;57.10
35497;DHT22;21609;49.298;6.844;2022-09-11T02:05:17;21.20;57.00
35497;DHT22;21609;49.298;6.844;2022-09-11T02:07:52;21.20;57.10
35497;DHT22;21609;49.298;6.844;2022-09-11T02:10:30;21.30;57.10
35497;DHT22;21609;49.298;6.844;2022-09-11T02:15:32;21.20;57.10
35497;DHT22;21609;49.298;6.844;2022-09-11T02:18:19;21.20;57.10
35497;DHT22;21609;49.298;6.844;2022-09-11T02:20:49;21.20;57.10
35497;DHT22;21609;49.298;6.844;2022-09-11T02:23:15;21.20;57.10
35497;DHT22;21609;49.298;6.844;2022-09-11T02:25:41;21.20;57.10
35497;DHT22;21609;49.298;6.844;2022-09-11T02:28:07;21.20;57.10
35497;DHT22;21609;49.298;6.844;2022-09-11T02:30:33;21.20;57.10
35497;DHT22;21609;49.298;6.844;2022-09-11T02:32:58;21.20;57.00
35497;DHT22;21609;49.298;6.844;2022-09-11T02:35:29;21.20;57.10
35497;DHT22;21609;49.298;6.844;2022-09-11T02:38:32;21.20;57.10
35497;DHT22;21609;49.298;6.844;2022-09-11T02:41:10;21.20;57.10
35497;DHT22;21609;49.298;6.844;2022-09-11T02:46:23;21.20;57.10
35497;DHT22;21609;49.298;6.844;2022-09-11T02:49:13;21.20;57.10
35497;DHT22;21609;49.298;6.844;2022-09-11T02:51:54;21.20;57.10
35497;DHT22;21609;49.298;6.844;2022-09-11T02:57:19;21.10;57.00
35497;DHT22;21609;49.298;6.844;2022-09-11T02:59:58;21.20;57.10
35497;DHT22;21609;49.298;6.844;2022-09-11T03:02:26;21.10;57.00
35497;DHT22;21609;49.298;6.844;2022-09-11T03:04:52;21.20;57.00
35497;DHT22;21609;49.298;6.844;2022-09-11T03:07:18;21.20;57.00
35497;DHT22;21609;49.298;6.844;2022-09-11T03:09:43;21.20;57.00
35497;DHT22;21609;49.298;6.844;2022-09-11T03:12:09;21.10;57.00
35497;DHT22;21609;49.298;6.844;2022-09-11T03:14:35;21.20;57.00
35497;DHT22;21609;49.298;6.844;2022-09-11T03:17:02;21.20;57.00
35497;DHT22;21609;49.298;6.844;2022-09-11T03:19:28;21.20;57.00
35497;DHT22;21609;49.298;6.844;2022-09-11T03:21:55;21.10;57.00
35497;DHT22;21609;49.298;6.844;2022-09-11T03:24:20;21.20;57.00
35497;DHT22;21609;49.298;6.844;2022-09-11T03:26:46;21.20;57.10
35497;DHT22;21609;49.298;6.844;2022-09-11T03:29:11;21.10;57.00
35497;DHT22;21609;49.298;6.844;2022-09-11T03:31:37;21.20;57.00
35497;DHT22;21609;49.298;6.844;2022-09-11T03:34:02;21.20;57.00
35497;DHT22;21609;49.298;6.844;2022-09-11T03:36:28;21.20;57.00
35497;DHT22;21609;49.298;6.844;2022-09-11T03:38:53;21.10;57.00
35497;DHT22;21609;49.298;6.844;2022-09-11T03:41:19;21.20;57.00
35497;DHT22;21609;49.298;6.844;2022-09-11T03:43:45;21.10;57.00
35497;DHT22;21609;49.298;6.844;2022-09-11T03:46:11;21.10;57.00
35497;DHT22;21609;49.298;6.844;2022-09-11T03:48:37;21.10;57.00
35497;DHT22;21609;49.298;6.844;2022-09-11T03:51:02;21.10;57.00
35497;DHT22;21609;49.298;6.844;2022-09-11T03:53:31;21.10;57.00
35497;DHT22;21609;49.298;6.844;2022-09-11T03:55:57;21.10;57.00
35497;DHT22;21609;49.298;6.844;2022-09-11T03:58:23;21.10;57.00
35497;DHT22;21609;49.298;6.844;2022-09-11T04:00:49;21.10;56.90
35497;DHT22;21609;49.298;6.844;2022-09-11T04:03:15;21.10;57.00
35497;DHT22;21609;49.298;6.844;2022-09-11T04:05:41;21.10;56.90
35497;DHT22;21609;49.298;6.844;2022-09-11T04:08:11;21.10;56.90
35497;DHT22;21609;49.298;6.844;2022-09-11T04:10:36;21.10;57.00
35497;DHT22;21609;49.298;6.844;2022-09-11T04:13:03;21.10;57.00
35497;DHT22;21609;49.298;6.844;2022-09-11T04:15:28;21.10;56.90
35497;DHT22;21609;49.298;6.844;2022-09-11T04:17:54;21.10;57.00
35497;DHT22;21609;49.298;6.844;2022-09-11T04:20:20;21.10;57.00
35497;DHT22;21609;49.298;6.844;2022-09-11T04:22:45;21.10;56.90
35497;DHT22;21609;49.298;6.844;2022-09-11T04:25:11;21.10;57.00
35497;DHT22;21609;49.298;6.844;2022-09-11T04:27:36;21.10;56.90
35497;DHT22;21609;49.298;6.844;2022-09-11T04:30:03;21.10;57.00
35497;DHT22;21609;49.298;6.844;2022-09-11T04:32:28;21.10;57.00
35497;DHT22;21609;49.298;6.844;2022-09-11T04:34:54;21.10;56.90
35497;DHT22;21609;49.298;6.844;2022-09-11T04:37:20;21.10;57.00
35497;DHT22;21609;49.298;6.844;2022-09-11T04:39:46;21.10;57.00
35497;DHT22;21609;49.298;6.844;2022-09-11T04:42:13;21.10;56.90
35497;DHT22;21609;49.298;6.844;2022-09-11T04:44:39;21.10;56.90
35497;DHT22;21609;49.298;6.844;2022-09-11T04:47:04;21.10;56.90
35497;DHT22;21609;49.298;6.844;2022-09-11T04:49:30;21.10;56.90
35497;DHT22;21609;49.298;6.844;2022-09-11T04:51:57;21.10;56.90
35497;DHT22;21609;49.298;6.844;2022-09-11T04:54:27;21.10;56.90
35497;DHT22;21609;49.298;6.844;2022-09-11T04:56:52;21.00;56.90
35497;DHT22;21609;49.298;6.844;2022-09-11T04:59:20;21.10;57.00
35497;DHT22;21609;49.298;6.844;2022-09-11T05:01:47;21.10;56.90
35497;DHT22;21609;49.298;6.844;2022-09-11T05:04:13;21.10;56.90
35497;DHT22;21609;49.298;6.844;2022-09-11T05:06:42;21.10;56.90
35497;DHT22;21609;49.298;6.844;2022-09-11T05:09:09;21.10;56.90
35497;DHT22;21609;49.298;6.844;2022-09-11T05:11:36;21.10;56.90
35497;DHT22;21609;49.298;6.844;2022-09-11T05:14:03;21.10;56.90
35497;DHT22;21609;49.298;6.844;2022-09-11T05:16:29;21.10;56.90
35497;DHT22;21609;49.298;6.844;2022-09-11T05:18:56;21.00;56.90
35497;DHT22;21609;49.298;6.844;2022-09-11T05:21:23;21.10;56.90
35497;DHT22;21609;49.298;6.844;2022-09-11T05:23:51;21.10;56.90
35497;DHT22;21609;49.298;6.844;2022-09-11T05:26:23;21.10;56.90
35497;DHT22;21609;49.298;6.844;2022-09-11T05:28:53;21.10;56.90
35497;DHT22;21609;49.298;6.844;2022-09-11T05:31:19;21.00;56.80
35497;DHT22;21609;49.298;6.844;2022-09-11T05:33:45;21.00;56.90
35497;DHT22;21609;49.298;6.844;2022-09-11T05:36:12;21.00;57.20
35497;DHT22;21609;49.298;6.844;2022-09-11T05:38:38;21.10;57.10
35497;DHT22;21609;49.298;6.844;2022-09-11T05:41:06;21.10;57.00
35497;DHT22;21609;49.298;6.844;2022-09-11T05:43:33;21.10;57.00
35497;DHT22;21609;49.298;6.844;2022-09-11T05:45:59;21.00;56.90
35497;DHT22;21609;49.298;6.844;2022-09-11T05:48:31;21.00;56.90
35497;DHT22;21609;49.298;6.844;2022-09-11T05:51:02;21.00;56.90
35497;DHT22;21609;49.298;6.844;2022-09-11T05:53:29;21.00;57.00
35497;DHT22;21609;49.298;6.844;2022-09-11T05:56:04;21.00;56.90
35497;DHT22;21609;49.298;6.844;2022-09-11T05:58:30;21.00;56.90
35497;DHT22;21609;49.298;6.844;2022-09-11T06:01:08;21.00;57.00
35497;DHT22;21609;49.298;6.844;2022-09-11T06:03:35;21.00;57.00
35497;DHT22;21609;49.298;6.844;2022-09-11T06:06:02;21.00;56.90
35497;DHT22;21609;49.298;6.844;2022-09-11T06:08:29;21.00;56.90
35497;DHT22;21609;49.298;6.844;2022-09-11T06:10:56;21.00;56.90
35497;DHT22;21609;49.298;6.844;2022-09-11T06:13:24;21.00;57.00
35497;DHT22;21609;49.298;6.844;2022-09-11T06:15:50;21.00;56.90
35497;DHT22;21609;49.298;6.844;2022-09-11T06:18:15;21.00;56.90
35497;DHT22;21609;49.298;6.844;2022-09-11T06:20:41;21.00;57.00
35497;DHT22;21609;49.298;6.844;2022-09-11T06:23:10;21.00;57.00
35497;DHT22;21609;49.298;6.844;2022-09-11T06:25:36;21.00;57.00
35497;DHT22;21609;49.298;6.844;2022-09-11T06:28:02;21.00;57.10
35497;DHT22;21609;49.298;6.844;2022-09-11T06:30:28;21.00;57.10
35497;DHT22;21609;49.298;6.844;2022-09-11T06:32:54;21.00;57.10
35497;DHT22;21609;49.298;6.844;2022-09-11T06:35:22;21.00;57.10
35497;DHT22;21609;49.298;6.844;2022-09-11T06:37:48;21.00;57.10
35497;DHT22;21609;49.298;6.844;2022-09-11T06:40:13;21.00;57.20
35497;DHT22;21609;49.298;6.844;2022-09-11T06:42:39;21.00;57.20
35497;DHT22;21609;49.298;6.844;2022-09-11T06:45:05;21.00;57.20
35497;DHT22;21609;49.298;6.844;2022-09-11T06:47:31;21.00;57.30
35497;DHT22;21609;49.298;6.844;2022-09-11T06:49:57;21.00;57.20
35497;DHT22;21609;49.298;6.844;2022-09-11T06:52:22;21.00;57.30
35497;DHT22;21609;49.298;6.844;2022-09-11T06:54:48;21.00;57.30
35497;DHT22;21609;49.298;6.844;2022-09-11T06:57:14;21.00;57.40
35497;DHT22;21609;49.298;6.844;2022-09-11T06:59:40;21.00;57.50
35497;DHT22;21609;49.298;6.844;2022-09-11T07:02:08;21.00;57.60
35497;DHT22;21609;49.298;6.844;2022-09-11T07:04:33;21.00;57.50
35497;DHT22;21609;49.298;6.844;2022-09-11T07:06:59;21.00;57.60
35497;DHT22;21609;49.298;6.844;2022-09-11T07:09:24;21.00;57.60
35497;DHT22;21609;49.298;6.844;2022-09-11T07:11:50;21.00;57.60
35497;DHT22;21609;49.298;6.844;2022-09-11T07:14:15;21.00;57.60
35497;DHT22;21609;49.298;6.844;2022-09-11T07:16:47;21.00;57.60
35497;DHT22;21609;49.298;6.844;2022-09-11T07:19:13;21.00;57.60
35497;DHT22;21609;49.298;6.844;2022-09-11T07:21:39;21.00;57.70
35497;DHT22;21609;49.298;6.844;2022-09-11T07:24:05;21.00;57.70
35497;DHT22;21609;49.298;6.844;2022-09-11T07:26:30;21.00;57.70
35497;DHT22;21609;49.298;6.844;2022-09-11T07:28:58;21.00;57.80
35497;DHT22;21609;49.298;6.844;2022-09-11T07:31:26;21.00;57.80
35497;DHT22;21609;49.298;6.844;2022-09-11T07:33:53;21.00;58.00
35497;DHT22;21609;49.298;6.844;2022-09-11T07:36:22;21.00;57.80
35497;DHT22;21609;49.298;6.844;2022-09-11T07:38:48;21.00;57.70
35497;DHT22;21609;49.298;6.844;2022-09-11T07:41:16;21.00;57.80
35497;DHT22;21609;49.298;6.844;2022-09-11T07:43:43;21.00;57.60
35497;DHT22;21609;49.298;6.844;2022-09-11T07:46:13;21.10;57.70
35497;DHT22;21609;49.298;6.844;2022-09-11T07:48:39;21.10;57.90
35497;DHT22;21609;49.298;6.844;2022-09-11T07:51:09;21.00;57.90
35497;DHT22;21609;49.298;6.844;2022-09-11T07:53:38;21.00;57.90
35497;DHT22;21609;49.298;6.844;2022-09-11T07:56:09;21.00;58.00
35497;DHT22;21609;49.298;6.844;2022-09-11T07:58:37;21.00;58.00
35497;DHT22;21609;49.298;6.844;2022-09-11T08:01:04;21.00;58.00
35497;DHT22;21609;49.298;6.844;2022-09-11T08:03:30;21.00;58.00
35497;DHT22;21609;49.298;6.844;2022-09-11T08:05:57;21.00;58.00
35497;DHT22;21609;49.298;6.844;2022-09-11T08:08:23;21.00;58.10
35497;DHT22;21609;49.298;6.844;2022-09-11T08:10:49;21.00;58.20
35497;DHT22;21609;49.298;6.844;2022-09-11T08:13:15;21.00;58.20
35497;DHT22;21609;49.298;6.844;2022-09-11T08:15:49;21.00;58.30
35497;DHT22;21609;49.298;6.844;2022-09-11T08:18:15;21.00;58.30
35497;DHT22;21609;49.298;6.844;2022-09-11T08:20:41;21.00;58.30
35497;DHT22;21609;49.298;6.844;2022-09-11T08:23:07;21.00;58.30
35497;DHT22;21609;49.298;6.844;2022-09-11T08:25:37;21.00;58.30
35497;DHT22;21609;49.298;6.844;2022-09-11T08:28:03;21.00;58.40
35497;DHT22;21609;49.298;6.844;2022-09-11T08:30:30;21.00;58.40
35497;DHT22;21609;49.298;6.844;2022-09-11T08:32:56;21.00;58.40
35497;DHT22;21609;49.298;6.844;2022-09-11T08:35:22;21.00;58.40
35497;DHT22;21609;49.298;6.844;2022-09-11T08:37:47;21.00;58.40
35497;DHT22;21609;49.298;6.844;2022-09-11T08:40:13;21.00;58.40
35497;DHT22;21609;49.298;6.844;2022-09-11T08:42:40;21.00;58.40
35497;DHT22;21609;49.298;6.844;2022-09-11T08:45:13;21.00;58.40
35497;DHT22;21609;49.298;6.844;2022-09-11T08:47:40;21.00;58.40
35497;DHT22;21609;49.298;6.844;2022-09-11T08:50:21;21.00;58.40
35497;DHT22;21609;49.298;6.844;2022-09-11T08:52:47;21.00;58.40
35497;DHT22;21609;49.298;6.844;2022-09-11T08:55:16;21.00;58.30
35497;DHT22;21609;49.298;6.844;2022-09-11T09:00:21;21.00;58.40
35497;DHT22;21609;49.298;6.844;2022-09-11T09:03:24;21.00;58.40
35497;DHT22;21609;49.298;6.844;2022-09-11T09:14:46;21.00;58.40
35497;DHT22;21609;49.298;6.844;2022-09-11T09:17:20;21.00;58.40
35497;DHT22;21609;49.298;6.844;2022-09-11T09:19:53;21.00;58.40
35497;DHT22;21609;49.298;6.844;2022-09-11T09:22:38;21.00;58.40
35497;DHT22;21609;49.298;6.844;2022-09-11T09:25:11;21.00;58.40
35497;DHT22;21609;49.298;6.844;2022-09-11T09:27:48;21.00;58.40
35497;DHT22;21609;49.298;6.844;2022-09-11T09:30:20;21.00;58.40
35497;DHT22;21609;49.298;6.844;2022-09-11T09:32:59;21.00;58.40
35497;DHT22;21609;49.298;6.844;2022-09-11T09:35:31;21.00;58.40
35497;DHT22;21609;49.298;6.844;2022-09-11T09:38:00;21.00;58.30
35497;DHT22;21609;49.298;6.844;2022-09-11T09:40:26;21.00;58.40
35497;DHT22;21609;49.298;6.844;2022-09-11T09:43:55;21.00;58.40
35497;DHT22;21609;49.298;6.844;2022-09-11T09:48:37;21.00;58.40
35497;DHT22;21609;49.298;6.844;2022-09-11T09:51:04;21.00;58.40
35497;DHT22;21609;49.298;6.844;2022-09-11T09:56:06;21.00;58.40
35497;DHT22;21609;49.298;6.844;2022-09-11T09:58:40;21.00;58.40
35497;DHT22;21609;49.298;6.844;2022-09-11T10:04:20;21.00;58.40
35497;DHT22;21609;49.298;6.844;2022-09-11T10:06:48;21.00;58.40
35497;DHT22;21609;49.298;6.844;2022-09-11T10:09:28;21.00;58.50
35497;DHT22;21609;49.298;6.844;2022-09-11T10:12:00;21.00;58.50
35497;DHT22;21609;49.298;6.844;2022-09-11T10:14:32;21.00;58.40
35497;DHT22;21609;49.298;6.844;2022-09-11T10:17:00;21.00;58.40
35497;DHT22;21609;49.298;6.844;2022-09-11T10:19:44;21.00;58.40
35497;DHT22;21609;49.298;6.844;2022-09-11T10:27:23;21.00;58.30
35497;DHT22;21609;49.298;6.844;2022-09-11T10:29:49;21.00;58.30
35497;DHT22;21609;49.298;6.844;2022-09-11T10:32:16;21.00;58.30
35497;DHT22;21609;49.298;6.844;2022-09-11T10:34:42;21.00;58.30
35497;DHT22;21609;49.298;6.844;2022-09-11T10:39:39;21.00;58.30
35497;DHT22;21609;49.298;6.844;2022-09-11T10:42:18;21.10;58.30
35497;DHT22;21609;49.298;6.844;2022-09-11T10:44:46;21.00;58.30
35497;DHT22;21609;49.298;6.844;2022-09-11T10:49:47;21.10;58.40
35497;DHT22;21609;49.298;6.844;2022-09-11T11:08:14;21.10;58.50
35497;DHT22;21609;49.298;6.844;2022-09-11T11:10:49;21.10;58.50
35497;DHT22;21609;49.298;6.844;2022-09-11T11:24:52;21.10;58.50
35497;DHT22;21609;49.298;6.844;2022-09-11T11:30:19;21.10;58.50
35497;DHT22;21609;49.298;6.844;2022-09-11T11:38:21;21.10;58.60
35497;DHT22;21609;49.298;6.844;2022-09-11T11:41:32;21.10;58.60
35497;DHT22;21609;49.298;6.844;2022-09-11T11:43:50;21.10;58.60
35497;DHT22;21609;49.298;6.844;2022-09-11T11:46:28;21.10;58.60
35497;DHT22;21609;49.298;6.844;2022-09-11T11:49:00;21.10;58.60
35497;DHT22;21609;49.298;6.844;2022-09-11T11:51:29;21.10;58.70
35497;DHT22;21609;49.298;6.844;2022-09-11T11:57:17;21.10;58.60
35497;DHT22;21609;49.298;6.844;2022-09-11T11:59:53;21.10;58.70
35497;DHT22;21609;49.298;6.844;2022-09-11T12:05:29;21.10;58.70
35497;DHT22;21609;49.298;6.844;2022-09-11T12:07:56;21.20;58.80
35497;DHT22;21609;49.298;6.844;2022-09-11T12:12:54;21.10;58.80
35497;DHT22;21609;49.298;6.844;2022-09-11T12:15:23;21.20;58.90
35497;DHT22;21609;49.298;6.844;2022-09-11T12:20:40;21.10;58.90
35497;DHT22;21609;49.298;6.844;2022-09-11T12:23:32;21.10;58.90
35497;DHT22;21609;49.298;6.844;2022-09-11T12:26:20;21.10;59.00
35497;DHT22;21609;49.298;6.844;2022-09-11T12:28:47;21.20;59.00
35497;DHT22;21609;49.298;6.844;2022-09-11T12:31:15;21.10;58.90
35497;DHT22;21609;49.298;6.844;2022-09-11T12:36:15;21.20;59.00
35497;DHT22;21609;49.298;6.844;2022-09-11T12:41:35;21.10;59.00
35497;DHT22;21609;49.298;6.844;2022-09-11T12:44:26;21.20;59.70
35497;DHT22;21609;49.298;6.844;2022-09-11T12:49:16;21.20;59.20
35497;DHT22;21609;49.298;6.844;2022-09-11T12:51:52;21.20;59.20
35497;DHT22;21609;49.298;6.844;2022-09-11T12:56:57;21.20;59.20
35497;DHT22;21609;49.298;6.844;2022-09-11T12:59:38;21.20;59.10
35497;DHT22;21609;49.298;6.844;2022-09-11T13:02:13;21.20;59.20
35497;DHT22;21609;49.298;6.844;2022-09-11T13:04:43;21.20;59.30
35497;DHT22;21609;49.298;6.844;2022-09-11T13:10:07;21.30;59.60
35497;DHT22;21609;49.298;6.844;2022-09-11T13:12:46;21.30;59.60
35497;DHT22;21609;49.298;6.844;2022-09-11T13:17:55;21.30;59.80
35497;DHT22;21609;49.298;6.844;2022-09-11T13:20:22;21.30;60.20
35497;DHT22;21609;49.298;6.844;2022-09-11T13:22:51;21.40;60.20
35497;DHT22;21609;49.298;6.844;2022-09-11T13:25:21;21.50;60.50
35497;DHT22;21609;49.298;6.844;2022-09-11T13:27:52;21.70;60.00
35497;DHT22;21609;49.298;6.844;2022-09-11T13:30:22;21.70;59.70
35497;DHT22;21609;49.298;6.844;2022-09-11T13:33:05;21.70;59.60
35497;DHT22;21609;49.298;6.844;2022-09-11T13:35:32;21.70;59.60
35497;DHT22;21609;49.298;6.844;2022-09-11T13:38:04;21.70;59.50
35497;DHT22;21609;49.298;6.844;2022-09-11T13:40:57;21.80;59.60
35497;DHT22;21609;49.298;6.844;2022-09-11T13:43:27;21.80;59.90
35497;DHT22;21609;49.298;6.844;2022-09-11T13:46:10;21.80;59.90
35497;DHT22;21609;49.298;6.844;2022-09-11T13:48:38;21.90;60.00
35497;DHT22;21609;49.298;6.844;2022-09-11T13:51:04;21.90;60.00
35497;DHT22;21609;49.298;6.844;2022-09-11T13:53:32;21.90;60.10
35497;DHT22;21609;49.298;6.844;2022-09-11T13:55:59;21.90;59.90
35497;DHT22;21609;49.298;6.844;2022-09-11T13:58:29;22.00;59.90
35497;DHT22;21609;49.298;6.844;2022-09-11T14:01:10;22.00;59.90
35497;DHT22;21609;49.298;6.844;2022-09-11T14:03:38;22.10;60.20
35497;DHT22;21609;49.298;6.844;2022-09-11T14:06:15;22.10;60.00
35497;DHT22;21609;49.298;6.844;2022-09-11T14:08:42;22.20;60.20
35497;DHT22;21609;49.298;6.844;2022-09-11T14:11:20;22.20;60.00
35497;DHT22;21609;49.298;6.844;2022-09-11T14:13:50;22.20;60.00
35497;DHT22;21609;49.298;6.844;2022-09-11T14:16:30;22.20;59.90
35497;DHT22;21609;49.298;6.844;2022-09-11T14:19:06;22.30;60.00
35497;DHT22;21609;49.298;6.844;2022-09-11T14:21:38;22.40;60.20
35497;DHT22;21609;49.298;6.844;2022-09-11T14:24:24;22.40;59.80
35497;DHT22;21609;49.298;6.844;2022-09-11T14:26:50;22.50;58.90
35497;DHT22;21609;49.298;6.844;2022-09-11T14:29:32;22.60;58.80
35497;DHT22;21609;49.298;6.844;2022-09-11T14:32:34;22.60;58.60
35497;DHT22;21609;49.298;6.844;2022-09-11T14:35:05;22.60;58.80
35497;DHT22;21609;49.298;6.844;2022-09-11T14:37:33;22.50;59.00
35497;DHT22;21609;49.298;6.844;2022-09-11T14:40:06;22.50;59.20
35497;DHT22;21609;49.298;6.844;2022-09-11T14:42:34;22.40;59.20
35497;DHT22;21609;49.298;6.844;2022-09-11T14:45:19;22.50;59.30
35497;DHT22;21609;49.298;6.844;2022-09-11T14:47:45;22.50;59.20
35497;DHT22;21609;49.298;6.844;2022-09-11T14:50:11;22.50;59.20
35497;DHT22;21609;49.298;6.844;2022-09-11T14:52:38;22.50;59.30
35497;DHT22;21609;49.298;6.844;2022-09-11T14:55:05;22.50;59.20
35497;DHT22;21609;49.298;6.844;2022-09-11T14:57:32;22.50;59.20
35497;DHT22;21609;49.298;6.844;2022-09-11T14:59:58;22.50;59.20
35497;DHT22;21609;49.298;6.844;2022-09-11T15:02:26;22.50;59.20
35497;DHT22;21609;49.298;6.844;2022-09-11T15:04:53;22.50;59.20
35497;DHT22;21609;49.298;6.844;2022-09-11T15:07:20;22.50;59.00
35497;DHT22;21609;49.298;6.844;2022-09-11T15:09:49;22.50;59.00
35497;DHT22;21609;49.298;6.844;2022-09-11T15:12:15;22.50;58.90
35497;DHT22;21609;49.298;6.844;2022-09-11T15:14:40;22.40;59.00
35497;DHT22;21609;49.298;6.844;2022-09-11T15:17:15;22.50;59.00
35497;DHT22;21609;49.298;6.844;2022-09-11T15:19:41;22.50;58.90
35497;DHT22;21609;49.298;6.844;2022-09-11T15:22:10;22.50;58.90
35497;DHT22;21609;49.298;6.844;2022-09-11T15:24:36;22.50;58.80
35497;DHT22;21609;49.298;6.844;2022-09-11T15:27:01;22.50;58.80
35497;DHT22;21609;49.298;6.844;2022-09-11T15:29:28;22.50;58.70
35497;DHT22;21609;49.298;6.844;2022-09-11T15:31:53;22.50;58.70
35497;DHT22;21609;49.298;6.844;2022-09-11T15:34:20;22.50;58.70
35497;DHT22;21609;49.298;6.844;2022-09-11T15:36:47;22.50;58.70
35497;DHT22;21609;49.298;6.844;2022-09-11T15:39:17;22.50;58.70
35497;DHT22;21609;49.298;6.844;2022-09-11T15:41:43;22.40;58.70
35497;DHT22;21609;49.298;6.844;2022-09-11T15:44:20;22.40;58.70
35497;DHT22;21609;49.298;6.844;2022-09-11T15:46:47;22.50;58.70
35497;DHT22;21609;49.298;6.844;2022-09-11T15:49:15;22.50;57.90
35497;DHT22;21609;49.298;6.844;2022-09-11T15:51:42;22.50;58.10
35497;DHT22;21609;49.298;6.844;2022-09-11T15:54:09;22.50;58.20
35497;DHT22;21609;49.298;6.844;2022-09-11T15:56:35;22.50;58.30
35497;DHT22;21609;49.298;6.844;2022-09-11T15:59:01;22.50;58.30
35497;DHT22;21609;49.298;6.844;2022-09-11T16:01:32;22.50;58.20
35497;DHT22;21609;49.298;6.844;2022-09-11T16:04:00;22.40;58.20
35497;DHT22;21609;49.298;6.844;2022-09-11T16:06:28;22.40;58.20
35497;DHT22;21609;49.298;6.844;2022-09-11T16:08:58;22.40;58.30
35497;DHT22;21609;49.298;6.844;2022-09-11T16:11:24;22.40;58.20
35497;DHT22;21609;49.298;6.844;2022-09-11T16:13:51;22.50;58.20
35497;DHT22;21609;49.298;6.844;2022-09-11T16:16:18;22.40;58.20
35497;DHT22;21609;49.298;6.844;2022-09-11T16:18:43;22.40;58.10
35497;DHT22;21609;49.298;6.844;2022-09-11T16:21:14;22.40;58.20
35497;DHT22;21609;49.298;6.844;2022-09-11T16:23:40;22.40;58.10
35497;DHT22;21609;49.298;6.844;2022-09-11T16:26:08;22.40;58.10
35497;DHT22;21609;49.298;6.844;2022-09-11T16:28:36;22.40;58.10
35497;DHT22;21609;49.298;6.844;2022-09-11T16:31:03;22.40;58.10
35497;DHT22;21609;49.298;6.844;2022-09-11T16:33:30;22.40;58.10
35497;DHT22;21609;49.298;6.844;2022-09-11T16:36:01;22.40;58.00
35497;DHT22;21609;49.298;6.844;2022-09-11T16:38:30;22.50;58.10
35497;DHT22;21609;49.298;6.844;2022-09-11T16:41:11;22.40;58.00
35497;DHT22;21609;49.298;6.844;2022-09-11T16:43:48;22.40;57.90
35497;DHT22;21609;49.298;6.844;2022-09-11T16:46:17;22.50;57.90
35497;DHT22;21609;49.298;6.844;2022-09-11T16:48:43;22.40;57.90
35497;DHT22;21609;49.298;6.844;2022-09-11T16:51:10;22.40;57.90
35497;DHT22;21609;49.298;6.844;2022-09-11T16:53:36;22.40;57.90
35497;DHT22;21609;49.298;6.844;2022-09-11T16:56:06;22.40;57.80
35497;DHT22;21609;49.298;6.844;2022-09-11T16:58:33;22.40;57.90
35497;DHT22;21609;49.298;6.844;2022-09-11T17:01:14;22.40;57.90
35497;DHT22;21609;49.298;6.844;2022-09-11T17:03:41;22.40;58.50
35497;DHT22;21609;49.298;6.844;2022-09-11T17:06:08;22.40;58.00
35497;DHT22;21609;49.298;6.844;2022-09-11T17:08:34;22.30;58.00
35497;DHT22;21609;49.298;6.844;2022-09-11T17:11:01;22.40;58.10
35497;DHT22;21609;49.298;6.844;2022-09-11T17:13:28;22.30;58.00
35497;DHT22;21609;49.298;6.844;2022-09-11T17:16:00;22.30;58.00
35497;DHT22;21609;49.298;6.844;2022-09-11T17:18:26;22.30;58.00
35497;DHT22;21609;49.298;6.844;2022-09-11T17:20:54;22.30;58.00
35497;DHT22;21609;49.298;6.844;2022-09-11T17:23:21;22.30;58.00
35497;DHT22;21609;49.298;6.844;2022-09-11T17:25:47;22.30;58.00
35497;DHT22;21609;49.298;6.844;2022-09-11T17:28:13;22.30;58.00
35497;DHT22;21609;49.298;6.844;2022-09-11T17:30:38;22.30;58.00
35497;DHT22;21609;49.298;6.844;2022-09-11T17:33:04;22.30;58.00
35497;DHT22;21609;49.298;6.844;2022-09-11T17:35:30;22.30;58.00
35497;DHT22;21609;49.298;6.844;2022-09-11T17:37:56;22.20;58.00
35497;DHT22;21609;49.298;6.844;2022-09-11T17:40:22;22.30;58.00
35497;DHT22;21609;49.298;6.844;2022-09-11T17:42:47;22.20;58.00
35497;DHT22;21609;49.298;6.844;2022-09-11T17:45:13;22.20;58.10
35497;DHT22;21609;49.298;6.844;2022-09-11T17:47:40;22.20;58.00